createdAt,value
2022-09-07T00:00:06.024Z,97034.41
2022-09-07T00:05:08.710Z,97034.75
2022-09-07T00:10:10.421Z,97042.50
2022-09-07T00:15:12.848Z,97030.06
2022-09-07T00:20:15.105Z,97025.75
2022-09-07T00:25:17.073Z,97023.63
2022-09-07T00:30:18.774Z,97020.47
2022-09-07T00:35:20.477Z,97016.38
2022-09-07T00:40:22.145Z,97002.88
2022-09-07T00:45:24.205Z,97000.34
2022-09-07T00:50:35.178Z,97005.13
2022-09-07T00:55:38.449Z,97003.84
2022-09-07T01:00:41.771Z,96993.06
2022-09-07T01:05:48.533Z,97005.00
2022-09-07T01:10:50.293Z,97002.41
2022-09-07T01:16:01.059Z,97002.78
2022-09-07T01:21:14.431Z,97017.06
2022-09-07T01:26:51.691Z,97003.97
2022-09-07T01:32:05.409Z,97004.50
2022-09-07T01:37:46.231Z,97012.88
2022-09-07T01:43:04.445Z,97009.59
2022-09-07T01:48:10.361Z,97013.81
2022-09-07T01:53:17.962Z,97010.72
2022-09-07T01:58:40.996Z,97015.16
2022-09-07T02:03:46.895Z,97007.22
2022-09-07T02:09:30.278Z,97003.84
2022-09-07T02:14:41.502Z,97016.41
2022-09-07T02:19:54.518Z,97029.22
2022-09-07T02:25:00.044Z,97036.69
2022-09-07T02:30:02.127Z,97035.03
2022-09-07T02:35:04.972Z,97046.41
2022-09-07T02:40:07.179Z,97033.59
2022-09-07T02:45:12.021Z,97027.75
2022-09-07T02:50:37.485Z,97029.91
2022-09-07T02:55:45.609Z,97021.72
2022-09-07T03:01:06.032Z,97017.22
2022-09-07T03:06:32.614Z,97013.16
2022-09-07T03:11:37.679Z,96998.31
2022-09-07T03:16:39.675Z,96985.78
2022-09-07T03:21:41.487Z,96988.59
2022-09-07T03:26:46.813Z,97005.34
2022-09-07T03:31:48.626Z,97003.75
2022-09-07T03:36:50.401Z,97001.72
2022-09-07T03:41:52.025Z,97009.25
2022-09-07T03:46:53.759Z,97010.44
2022-09-07T03:51:55.583Z,97003.09
2022-09-07T03:56:57.385Z,97004.50
2022-09-07T04:01:59.132Z,97000.44
2022-09-07T04:07:00.870Z,96999.91
2022-09-07T04:12:02.944Z,96992.56
2022-09-07T04:17:04.681Z,97000.22
2022-09-07T04:22:06.327Z,96996.88
2022-09-07T04:27:08.051Z,97007.66
2022-09-07T04:32:13.477Z,97011.75
2022-09-07T04:37:17.313Z,97010.28
2022-09-07T04:42:18.940Z,97017.28
2022-09-07T04:47:20.671Z,97004.91
2022-09-07T04:52:22.615Z,97021.53
2022-09-07T04:57:26.538Z,97014.84
2022-09-07T05:02:28.299Z,97006.59
2022-09-07T05:07:30.059Z,97018.97
2022-09-07T05:12:31.739Z,97020.25
2022-09-07T05:17:33.447Z,97029.22
2022-09-07T05:22:35.614Z,97044.78
2022-09-07T05:27:37.302Z,97050.16
2022-09-07T05:32:38.951Z,97064.06
2022-09-07T05:37:40.971Z,97079.56
2022-09-07T05:42:42.660Z,97071.75
2022-09-07T05:47:44.313Z,97078.09
2022-09-07T05:52:47.844Z,97085.94
2022-09-07T05:57:49.808Z,97099.50
2022-09-07T06:02:51.588Z,97091.34
2022-09-07T06:07:53.303Z,97096.06
2022-09-07T06:12:54.904Z,97110.00
2022-09-07T06:17:56.627Z,97112.97
2022-09-07T06:22:58.946Z,97102.16
2022-09-07T06:28:00.891Z,97116.19
2022-09-07T06:33:02.530Z,97095.28
2022-09-07T06:38:04.294Z,97107.06
2022-09-07T06:43:06.416Z,97105.75
2022-09-07T06:48:08.079Z,97107.56
2022-09-07T06:58:31.974Z,97105.06
2022-09-07T07:03:34.506Z,97100.00
2022-09-07T07:08:36.534Z,97094.03
2022-09-07T07:13:40.233Z,97102.31
2022-09-07T07:18:43.377Z,97100.94
2022-09-07T07:23:49.327Z,97113.34
2022-09-07T07:29:07.090Z,97111.31
2022-09-07T07:34:09.119Z,97103.44
2022-09-07T07:44:32.904Z,97098.69
2022-09-07T07:49:34.561Z,97089.72
2022-09-07T07:54:39.204Z,97094.31
2022-09-07T07:59:40.802Z,97092.03
2022-09-07T08:04:42.593Z,97101.66
2022-09-07T08:09:46.143Z,97112.94
2022-09-07T08:14:48.295Z,97108.31
2022-09-07T08:19:50.989Z,97099.09
2022-09-07T08:24:52.871Z,97100.59
2022-09-07T08:29:54.935Z,97089.00
2022-09-07T08:34:56.751Z,97107.91
2022-09-07T08:39:58.556Z,97100.47
2022-09-07T08:45:11.611Z,97107.75
2022-09-07T08:50:29.341Z,97105.94
2022-09-07T08:55:36.372Z,97104.63
2022-09-07T09:00:39.663Z,97113.06
2022-09-07T09:05:55.290Z,97095.81
2022-09-07T09:11:03.051Z,97100.63
2022-09-07T09:16:18.932Z,97097.72
2022-09-07T09:21:20.969Z,97082.72
2022-09-07T09:26:25.356Z,97094.34
2022-09-07T09:31:35.171Z,97088.78
2022-09-07T09:36:54.712Z,97091.59
2022-09-07T09:41:59.794Z,97092.56
2022-09-07T09:52:29.701Z,97103.59
2022-09-07T10:08:58.886Z,97081.00
2022-09-07T10:14:00.784Z,97078.09
2022-09-07T10:19:03.190Z,97075.09
2022-09-07T10:24:04.765Z,97069.59
2022-09-07T10:29:15.238Z,97069.66
2022-09-07T10:34:27.482Z,97073.81
2022-09-07T10:39:43.658Z,97074.72
2022-09-07T10:45:10.315Z,97068.75
2022-09-07T10:50:32.929Z,97064.50
2022-09-07T10:55:38.456Z,97046.59
2022-09-07T11:01:09.813Z,97045.16
2022-09-07T11:06:37.665Z,97035.53
2022-09-07T11:17:27.517Z,97006.88
2022-09-07T11:22:52.025Z,96998.28
2022-09-07T11:28:20.108Z,96984.84
2022-09-07T11:33:30.574Z,96981.22
2022-09-07T11:38:39.406Z,96984.09
2022-09-07T11:43:55.653Z,96987.94
2022-09-07T11:48:58.355Z,96980.28
2022-09-07T11:54:17.232Z,96981.34
2022-09-07T11:59:38.217Z,96962.44
2022-09-07T12:05:02.752Z,96958.28
2022-09-07T12:10:36.531Z,96962.84
2022-09-07T12:15:57.193Z,96962.94
2022-09-07T12:20:59.302Z,96962.78
2022-09-07T12:26:35.640Z,96961.47
2022-09-07T12:31:59.836Z,96955.19
2022-09-07T12:37:12.460Z,96951.47
2022-09-07T12:42:37.971Z,96941.13
2022-09-07T12:47:40.427Z,96944.56
2022-09-07T12:52:48.700Z,96953.34
2022-09-07T12:58:17.329Z,96933.88
2022-09-07T13:03:51.819Z,96923.53
2022-09-07T13:08:54.119Z,96933.22
2022-09-07T13:14:14.345Z,96909.63
2022-09-07T13:20:02.572Z,96900.09
2022-09-07T13:25:23.647Z,96902.31
2022-09-07T13:30:36.353Z,96884.75
2022-09-07T13:35:39.030Z,96890.53
2022-09-07T13:40:46.561Z,96882.00
2022-09-07T13:45:53.999Z,96880.94
2022-09-07T13:51:23.937Z,96877.75
2022-09-07T13:56:37.439Z,96867.28
2022-09-07T14:01:45.005Z,96870.47
2022-09-07T14:06:46.665Z,96855.50
2022-09-07T14:11:54.096Z,96855.19
2022-09-07T14:17:02.471Z,96851.25
2022-09-07T14:22:14.350Z,96844.41
2022-09-07T14:27:37.637Z,96844.41
2022-09-07T14:32:39.284Z,96834.25
2022-09-07T14:37:41.706Z,96829.53
2022-09-07T14:42:43.379Z,96831.91
2022-09-07T14:47:47.186Z,96828.31
2022-09-07T14:58:15.483Z,96818.09
2022-09-07T15:03:33.791Z,96822.41
2022-09-07T15:08:38.683Z,96811.94
2022-09-07T15:13:44.970Z,96794.66
2022-09-07T15:18:54.397Z,96791.75
2022-09-07T15:23:58.493Z,96802.34
2022-09-07T15:29:15.481Z,96791.06
2022-09-07T15:34:19.703Z,96775.81
2022-09-07T15:39:25.248Z,96770.22
2022-09-07T15:44:28.569Z,96763.75
2022-09-07T15:49:30.295Z,96757.34
2022-09-07T15:54:35.089Z,96748.44
2022-09-07T15:59:38.754Z,96757.28
2022-09-07T16:04:41.188Z,96744.81
2022-09-07T16:09:43.376Z,96743.59
2022-09-07T16:14:45.254Z,96749.25
2022-09-07T16:19:46.895Z,96747.41
2022-09-07T16:24:48.849Z,96745.44
2022-09-07T16:29:51.614Z,96751.13
2022-09-07T16:34:53.318Z,96759.75
2022-09-07T16:39:55.159Z,96758.50
2022-09-07T16:46:02.544Z,96748.06
2022-09-07T16:50:18.535Z,96745.78
2022-09-07T16:55:20.666Z,96738.16
2022-09-07T17:00:22.361Z,96734.16
2022-09-07T17:05:24.083Z,96728.91
2022-09-07T17:10:26.140Z,96725.22
2022-09-07T17:15:27.776Z,96725.06
2022-09-07T17:20:29.430Z,96721.44
2022-09-07T17:25:33.200Z,96719.22
2022-09-07T17:30:35.402Z,96715.78
2022-09-07T17:35:37.522Z,96728.41
2022-09-07T17:40:39.232Z,96722.47
2022-09-07T17:45:40.955Z,96729.94
2022-09-07T17:50:42.773Z,96722.59
2022-09-07T17:55:44.884Z,96715.31
2022-09-07T18:00:47.457Z,96718.69
2022-09-07T18:05:53.734Z,96720.28
2022-09-07T18:16:32.735Z,96711.59
2022-09-07T18:21:36.552Z,96711.59
2022-09-07T18:26:41.221Z,96709.06
2022-09-07T18:31:42.978Z,96703.03
2022-09-07T18:36:44.734Z,96714.41
2022-09-07T18:41:46.549Z,96717.19
2022-09-07T18:46:48.170Z,96720.44
2022-09-07T18:57:11.890Z,96726.25
2022-09-07T19:02:14.258Z,96725.44
2022-09-07T19:07:16.005Z,96726.94
2022-09-07T19:12:17.582Z,96726.78
2022-09-07T19:17:19.315Z,96742.22
2022-09-07T19:22:20.981Z,96742.81
2022-09-07T19:27:22.604Z,96753.44
2022-09-07T19:32:25.525Z,96754.09
2022-09-07T19:37:28.881Z,96763.25
2022-09-07T19:42:30.750Z,96767.69
2022-09-07T19:47:33.619Z,96754.09
2022-09-07T19:52:35.314Z,96747.16
2022-09-07T19:57:37.260Z,96744.69
2022-09-07T20:02:39.557Z,96742.38
2022-09-07T20:07:41.307Z,96735.72
2022-09-07T20:12:43.147Z,96734.22
2022-09-07T20:17:47.013Z,96729.94
2022-09-07T20:22:49.057Z,96711.97
2022-09-07T20:27:51.243Z,96697.97
2022-09-07T20:32:53.081Z,96696.06
2022-09-07T20:37:54.891Z,96701.28
2022-09-07T20:43:06.005Z,96693.66
2022-09-07T20:48:07.912Z,96695.72
2022-09-07T20:53:09.589Z,96679.13
2022-09-07T20:58:11.522Z,96670.22
2022-09-07T21:03:14.609Z,96655.28
2022-09-07T21:08:16.560Z,96649.78
2022-09-07T21:13:18.245Z,96647.53
2022-09-07T21:18:19.878Z,96646.94
2022-09-07T21:23:22.042Z,96629.47
2022-09-07T21:28:24.570Z,96626.41
2022-09-07T21:33:27.698Z,96628.22
2022-09-07T21:38:29.442Z,96647.06
2022-09-07T21:43:31.225Z,96654.66
2022-09-07T21:48:33.231Z,96636.59
2022-09-07T21:53:35.322Z,96639.28
2022-09-07T21:58:37.064Z,96631.88
2022-09-07T22:03:40.368Z,96626.28
2022-09-07T22:08:42.524Z,96640.41
2022-09-07T22:13:44.694Z,96635.84
2022-09-07T22:18:46.592Z,96631.03
2022-09-07T22:23:50.977Z,96629.75
2022-09-07T22:28:53.102Z,96623.84
2022-09-07T22:33:56.760Z,96628.53
2022-09-07T22:39:00.549Z,96629.69
2022-09-07T22:44:02.830Z,96632.91
2022-09-07T22:49:05.819Z,96654.81
2022-09-07T22:54:08.420Z,96727.03
2022-09-07T22:59:10.446Z,96727.22
2022-09-07T23:04:13.248Z,96747.84
2022-09-07T23:09:17.383Z,96748.88
2022-09-07T23:14:22.100Z,96768.16
2022-09-07T23:19:23.860Z,96774.25
2022-09-07T23:24:25.499Z,96778.41
2022-09-07T23:29:27.122Z,96757.66
2022-09-07T23:34:28.716Z,96767.25
2022-09-07T23:39:30.458Z,96752.03
2022-09-07T23:44:32.070Z,96733.47
2022-09-07T23:49:33.600Z,96711.97
2022-09-07T23:54:35.263Z,96685.28
2022-09-07T23:59:36.947Z,96685.94
